Terminal Aerodrome Forecast
Issued by NWS

Home | Current Version | Previous Version | Text Only | Print | Product List | Glossary On
Versions: 1 2 3 4 5 6 7 8 9 10 11 12 13 14 15 16 17 18 19 20 21 22 23 24 25 26 27 28
000
FTUS44 KHGX 050304 AAA
TAFUTS
TAF AMD
KUTS 050304Z 0503/0524 01005KT P6SM VCSH OVC009
     FM050800 02004KT 6SM -RA BR VCSH OVC005
     FM051900 36005KT 6SM BR VCSH SCT007 OVC010=

USA.gov is the U.S. government's official web portal to all federal, state and local government web resources and services.